Time;durP1;ratioP1;P1;durP2;ratioP2;P2;SDS_P1;SDS_P2;PMS_P1;PMS_P2;Temp;Humidity;BMP_temperature;BMP_pressure;BME280_temperature;BME280_humidity;BME280_pressure;Samples;Min_cycle;Max_cycle;Signal;HPM_P1;HPM_P2
2023/07/24 04:19:18;;;;;;;7.63;5.13;;;;;;;20.79;72.52;99463.63;4939623;28;20056;-94
2023/07/24 04:21:44;;;;;;;9.00;4.47;;;;;;;21.01;71.02;99483.56;4894448;29;20070;-93
2023/07/24 04:24:09;;;;;;;10.63;4.90;;;;;;;21.18;70.19;99491.59;4900281;29;20032;-93
2023/07/24 04:26:35;;;;;;;5.30;4.18;;;;;;;21.24;68.57;99485.94;4904913;29;20451;-93
2023/07/24 04:29:00;;;;;;;19.55;12.57;;;;;;;21.35;69.90;99492.56;4889800;29;20394;-92
2023/07/24 04:31:29;;;;;;;7.70;5.53;;;;;;;21.35;69.24;99485.19;4924089;29;20028;-92
2023/07/24 04:33:54;;;;;;;8.00;4.50;;;;;;;21.46;69.39;99492.97;4924623;29;20035;-91
2023/07/24 04:36:20;;;;;;;7.18;4.60;;;;;;;21.49;68.60;99479.41;4920022;29;20036;-92
2023/07/24 04:38:47;;;;;;;7.85;5.20;;;;;;;21.48;69.46;99480.56;4884640;29;20099;-90
2023/07/24 04:41:12;;;;;;;8.98;6.00;;;;;;;21.47;69.76;99480.91;4892525;29;20174;-86
2023/07/24 04:43:38;;;;;;;13.30;4.97;;;;;;;21.51;69.25;99490.84;4890328;29;20107;-86
2023/07/24 04:46:03;;;;;;;6.93;4.60;;;;;;;21.54;69.58;99498.38;4887669;29;20032;-87
2023/07/24 04:48:29;;;;;;;7.63;4.65;;;;;;;21.37;69.23;99484.81;4888888;29;20020;-86
2023/07/24 04:50:55;;;;;;;8.05;5.20;;;;;;;21.33;70.00;99479.25;4888912;29;20032;-87
2023/07/24 04:53:20;;;;;;;6.70;4.30;;;;;;;21.30;70.33;99490.06;4889813;29;20434;-88
2023/07/24 04:55:46;;;;;;;6.22;4.50;;;;;;;21.39;70.36;99482.53;4889087;29;20020;-88
2023/07/24 04:58:12;;;;;;;8.13;4.70;;;;;;;21.47;69.99;99478.16;4873719;29;20513;-88
2023/07/24 05:00:37;;;;;;;10.10;4.72;;;;;;;21.56;69.46;99482.41;4890054;29;20032;-87
2023/07/24 05:03:03;;;;;;;7.63;4.85;;;;;;;21.72;69.02;99490.75;4898041;29;20032;-89
2023/07/24 05:05:30;;;;;;;7.32;5.05;;;;;;;21.74;68.03;99482.19;4894160;29;20031;-88
2023/07/24 05:07:58;;;;;;;8.77;5.70;;;;;;;21.85;67.43;99491.59;4892932;29;20501;-88
2023/07/24 05:10:24;;;;;;;12.23;5.90;;;;;;;21.85;66.99;99482.56;4895278;29;20027;-87
2023/07/24 05:12:50;;;;;;;10.73;6.85;;;;;;;21.99;67.29;99483.03;4896840;29;20037;-87
2023/07/24 05:15:16;;;;;;;12.18;7.10;;;;;;;22.03;66.63;99483.94;4892461;29;20040;-90
2023/07/24 05:17:45;;;;;;;9.60;7.13;;;;;;;22.11;66.39;99471.25;4898672;29;20044;-88
2023/07/24 05:20:11;;;;;;;9.77;6.47;;;;;;;22.15;65.64;99475.72;4892174;29;20031;-89
2023/07/24 05:22:37;;;;;;;14.90;6.45;;;;;;;22.23;64.91;99482.25;4892717;29;20027;-89
2023/07/24 05:25:03;;;;;;;9.00;5.38;;;;;;;22.23;65.24;99470.47;4907847;29;20058;-87
2023/07/24 05:27:30;;;;;;;13.00;6.28;;;;;;;22.27;65.58;99468.66;4906763;29;20034;-88
2023/07/24 05:29:59;;;;;;;8.70;4.82;;;;;;;22.43;64.71;99466.78;4897233;29;20028;-90
2023/07/24 05:32:24;;;;;;;10.52;5.88;;;;;;;22.55;64.47;99463.22;4896591;29;20038;-87
2023/07/24 05:34:50;;;;;;;10.27;6.00;;;;;;;22.72;63.77;99479.44;4903945;29;20091;-87
2023/07/24 05:37:16;;;;;;;6.22;4.68;;;;;;;22.63;63.04;99456.00;4875701;29;20028;-90
2023/07/24 05:39:43;;;;;;;6.82;5.05;;;;;;;22.79;63.39;99479.63;4874144;29;20024;-89
2023/07/24 05:42:10;;;;;;;10.23;4.45;;;;;;;22.85;62.96;99473.88;4892024;29;20502;-89
2023/07/24 05:48:20;;;;;;;6.85;4.35;;;;;;;22.84;62.57;99461.31;4912492;29;20035;-93
2023/07/24 05:50:44;;;;;;;13.40;5.50;;;;;;;22.97;62.36;99458.19;4898023;29;20040;-92
2023/07/24 05:53:17;;;;;;;6.43;4.50;;;;;;;23.14;61.63;99464.56;4876333;29;20035;-94
2023/07/24 05:56:03;;;;;;;8.65;4.82;;;;;;;23.15;60.96;99444.97;4877739;29;20476;-94
2023/07/24 05:59:50;;;;;;;8.27;4.35;;;;;;;23.50;60.44;99473.75;4898381;29;20012;-96
2023/07/24 06:02:19;;;;;;;6.88;4.78;;;;;;;23.46;61.00;99454.41;4859417;29;20174;-94
2023/07/24 06:04:47;;;;;;;6.95;4.07;;;;;;;23.62;59.45;99453.63;4852409;29;20029;-94
2023/07/24 06:07:23;;;;;;;6.07;4.38;;;;;;;23.72;59.71;99442.91;4890413;29;20066;-93
2023/07/24 06:13:16;;;;;;;12.38;6.93;;;;;;;24.02;59.10;99449.94;4876985;29;20095;-95
2023/07/24 06:16:07;;;;;;;;;;;;;;;;;;;;;
2023/07/24 06:18:39;;;;;;;17.05;8.35;;;;;;;24.36;58.97;99465.66;4832842;29;20105;-93
2023/07/24 06:21:10;;;;;;;21.73;8.25;;;;;;;24.58;58.12;99460.66;4837584;29;20034;-94
2023/07/24 06:23:36;;;;;;;9.23;6.28;;;;;;;24.69;56.71;99456.16;4829475;29;20033;-94
2023/07/24 06:26:13;;;;;;;;;;;;;;;;;;;;;
2023/07/24 06:29:28;;;;;;;8.13;5.63;;;;;;;24.91;55.21;99432.59;4853209;29;20112;-96
2023/07/24 06:31:54;;;;;;;10.68;5.72;;;;;;;25.04;55.17;99446.22;4865607;29;20424;-93
2023/07/24 06:34:19;;;;;;;10.15;5.25;;;;;;;25.15;56.50;99455.50;4863700;29;20057;-95
2023/07/24 06:36:54;;;;;;;10.20;5.30;;;;;;;25.03;56.12;99437.19;4872378;29;20133;-96
2023/07/24 06:39:20;;;;;;;7.35;5.13;;;;;;;25.23;55.90;99443.47;4875469;29;20035;-93
2023/07/24 06:41:49;;;;;;;7.53;4.53;;;;;;;25.36;55.11;99439.41;4885975;29;20055;-93
2023/07/24 06:44:47;;;;;;;10.15;4.72;;;;;;;25.40;54.87;99425.66;4881142;29;20120;-93
2023/07/24 06:47:13;;;;;;;7.80;4.63;;;;;;;25.49;54.86;99436.47;4879136;29;20033;-92
2023/07/24 06:50:09;;;;;;;10.32;5.22;;;;;;;25.73;54.75;99455.41;4890184;29;20033;-88
2023/07/24 06:52:35;;;;;;;9.73;6.13;;;;;;;25.78;54.83;99446.00;4889398;29;20115;-88
2023/07/24 06:55:00;;;;;;;9.23;5.32;;;;;;;25.83;55.09;99442.13;4898708;29;20040;-88
2023/07/24 06:57:26;;;;;;;6.28;4.90;;;;;;;25.76;54.79;99438.09;4877283;29;20040;-90
2023/07/24 06:59:51;;;;;;;10.50;5.80;;;;;;;25.79;55.12;99426.34;4858612;29;20028;-89
2023/07/24 07:02:17;;;;;;;14.55;4.95;;;;;;;26.05;54.40;99452.38;4856745;29;20032;-88
2023/07/24 07:04:43;;;;;;;8.00;5.55;;;;;;;26.18;53.83;99434.44;4869221;29;20033;-88
2023/07/24 07:07:13;;;;;;;11.50;5.25;;;;;;;26.34;53.46;99430.72;4927899;29;20117;-91
2023/07/24 07:09:42;;;;;;;8.73;6.15;;;;;;;26.39;52.31;99431.16;4914652;29;20035;-88
2023/07/24 07:12:08;;;;;;;8.90;5.05;;;;;;;26.58;51.72;99446.03;4908770;29;20038;-89
2023/07/24 07:14:33;;;;;;;24.75;6.93;;;;;;;26.67;50.70;99429.22;4891530;29;20107;-89
2023/07/24 07:16:59;;;;;;;7.47;4.45;;;;;;;26.81;50.20;99432.94;4923024;29;20033;-87
2023/07/24 07:19:24;;;;;;;5.60;4.25;;;;;;;26.80;49.72;99413.97;4887726;29;20481;-88
2023/07/24 07:21:54;;;;;;;6.03;4.53;;;;;;;27.02;49.54;99420.53;4899673;29;20506;-89
2023/07/24 07:24:22;;;;;;;7.32;5.20;;;;;;;27.21;48.98;99422.31;4892549;29;20028;-91
2023/07/24 07:26:51;;;;;;;13.07;6.95;;;;;;;27.31;49.02;99418.88;4891755;29;20028;-89
2023/07/24 07:29:16;;;;;;;7.65;4.35;;;;;;;27.26;47.59;99410.91;4903423;29;20636;-88
2023/07/24 07:31:42;;;;;;;9.20;6.05;;;;;;;27.27;47.71;99395.13;4910116;29;20024;-89
2023/07/24 07:34:13;;;;;;;10.20;4.40;;;;;;;27.46;47.35;99413.50;4899956;29;20031;-93
2023/07/24 07:37:18;;;;;;;4.95;3.90;;;;;;;27.56;45.33;99407.25;4892987;29;20055;-90
2023/07/24 07:39:48;;;;;;;9.50;5.00;;;;;;;27.85;46.70;99435.13;4899491;29;20037;-91
2023/07/24 07:42:17;;;;;;;5.47;4.32;;;;;;;27.82;44.93;99409.03;4893511;29;20059;-93
2023/07/24 07:45:11;;;;;;;6.07;4.00;;;;;;;28.08;43.95;99429.38;4914203;29;20027;-93
2023/07/24 07:47:39;;;;;;;21.58;18.17;;;;;;;28.05;45.28;99411.59;4908699;29;20127;-94
2023/07/24 07:50:07;;;;;;;9.65;6.97;;;;;;;28.22;45.98;99426.72;4894959;29;20032;-95
2023/07/24 07:53:32;;;;;;;6.65;4.50;;;;;;;28.17;46.06;99393.88;4897931;29;20046;-95
2023/07/24 07:56:00;;;;;;;5.05;3.17;;;;;;;28.30;44.52;99399.84;4889810;29;20100;-95
2023/07/24 07:58:26;;;;;;;7.35;5.95;;;;;;;28.31;44.73;99390.38;4885670;29;20047;-96
2023/07/24 08:00:51;;;;;;;6.00;3.90;;;;;;;28.41;45.72;99409.03;4902620;29;20024;-94
2023/07/24 08:03:20;;;;;;;5.18;3.67;;;;;;;28.52;44.38;99409.09;4901710;29;20115;-95
2023/07/24 08:05:45;;;;;;;5.45;3.35;;;;;;;28.44;42.53;99393.59;4899212;29;20028;-93
2023/07/24 08:08:11;;;;;;;5.28;3.40;;;;;;;28.56;41.52;99391.31;4896519;29;20028;-93
2023/07/24 08:10:52;;;;;;;5.13;2.85;;;;;;;28.67;39.86;99396.09;4915091;29;20039;-94
2023/07/24 08:13:29;;;;;;;124.55;80.00;;;;;;;28.84;40.98;99400.09;4928720;29;20512;-96
2023/07/24 08:15:57;;;;;;;12.50;7.20;;;;;;;28.95;42.39;99384.28;5057060;23;20039;-95
2023/07/24 08:18:30;;;;;;;4.05;3.05;;;;;;;29.04;42.78;99395.81;4963001;28;20035;-96
2023/07/24 08:21:01;;;;;;;6.70;3.53;;;;;;;28.96;43.21;99383.91;4956204;28;20058;-96
2023/07/24 08:23:27;;;;;;;4.20;3.20;;;;;;;29.06;42.53;99367.69;4943190;28;20050;-95
2023/07/24 08:26:02;;;;;;;6.80;5.05;;;;;;;29.20;42.69;99359.44;4977866;28;20031;-94
2023/07/24 08:28:31;;;;;;;5.82;3.85;;;;;;;29.42;42.98;99369.31;4992173;28;20007;-96
2023/07/24 08:31:09;;;;;;;4.28;3.13;;;;;;;29.45;40.56;99366.94;4942857;28;20119;-94
2023/07/24 08:33:40;;;;;;;4.60;2.83;;;;;;;29.56;40.01;99359.44;4953469;28;20054;-94
2023/07/24 08:36:12;;;;;;;4.88;2.95;;;;;;;29.63;39.69;99364.97;4954522;28;20033;-94
2023/07/24 08:39:31;;;;;;;6.22;4.75;;;;;;;29.84;40.26;99380.81;4960925;28;20046;-96
2023/07/24 08:42:10;;;;;;;3.78;2.90;;;;;;;29.76;39.57;99368.13;4970213;28;20071;-94
2023/07/24 08:44:46;;;;;;;12.45;6.18;;;;;;;29.79;39.61;99368.13;4949779;29;20065;-93
2023/07/24 08:47:12;;;;;;;5.72;4.13;;;;;;;29.90;40.88;99379.22;4927445;28;20065;-91
2023/07/24 08:49:42;;;;;;;4.10;3.45;;;;;;;29.96;40.95;99368.50;4928212;29;20034;-89
2023/07/24 08:52:08;;;;;;;5.70;3.28;;;;;;;30.06;40.88;99362.13;4945162;28;20054;-90
2023/07/24 08:54:35;;;;;;;4.80;3.33;;;;;;;30.13;40.62;99356.59;4955197;28;20030;-89
2023/07/24 08:57:04;;;;;;;4.38;3.53;;;;;;;30.12;40.54;99352.19;4934577;29;20070;-88
2023/07/24 08:59:30;;;;;;;8.45;3.30;;;;;;;30.28;41.02;99353.72;4941422;28;20123;-85
2023/07/24 09:01:58;;;;;;;4.32;3.30;;;;;;;30.48;39.49;99354.88;4914044;28;20043;-86
2023/07/24 09:04:24;;;;;;;4.20;2.78;;;;;;;30.78;36.72;99373.78;4929580;29;20031;-85
2023/07/24 09:07:09;;;;;;;4.50;3.20;;;;;;;30.89;37.12;99351.50;4932213;28;20039;-87
2023/07/24 09:09:39;;;;;;;4.50;2.90;;;;;;;31.14;37.41;99356.09;4918181;29;20023;-88
2023/07/24 09:12:11;;;;;;;6.05;3.17;;;;;;;31.26;36.60;99369.53;4930416;28;20046;-86
2023/07/24 09:14:41;;;;;;;4.90;3.22;;;;;;;31.47;36.11;99371.38;4972829;28;20070;-89
2023/07/24 09:17:19;;;;;;;5.20;3.22;;;;;;;31.21;34.57;99350.47;4977702;28;20208;-88
2023/07/24 09:19:45;;;;;;;5.47;2.97;;;;;;;31.40;35.76;99349.94;4973753;28;20027;-90
2023/07/24 09:22:26;;;;;;;6.85;2.90;;;;;;;31.57;35.71;99345.44;4958845;28;20025;-90
2023/07/24 09:25:03;;;;;;;4.97;2.85;;;;;;;31.54;35.22;99339.91;4971725;28;20034;-88
2023/07/24 09:30:23;;;;;;;4.82;2.92;;;;;;;31.51;37.04;99340.75;4977201;28;20049;-90
2023/07/24 09:36:39;;;;;;;6.72;3.65;;;;;;;31.46;36.24;99350.31;4967095;28;20041;-95
2023/07/24 09:39:30;;;;;;;3.65;2.80;;;;;;;30.98;35.86;99331.56;4958803;28;20550;-92
2023/07/24 09:42:08;;;;;;;3.63;2.80;;;;;;;30.83;35.37;99323.31;4974430;28;20117;-93
2023/07/24 09:44:42;;;;;;;33.53;6.30;;;;;;;31.01;36.05;99331.56;4979627;28;20039;-94
2023/07/24 09:47:10;;;;;;;4.57;2.60;;;;;;;31.12;35.49;99325.91;4953856;28;20496;-96
2023/07/24 09:49:38;;;;;;;5.05;3.88;;;;;;;31.28;35.37;99316.25;4951680;28;20031;-94
2023/07/24 09:52:52;;;;;;;4.13;2.97;;;;;;;31.34;34.34;99323.75;4951142;28;20031;-95
2023/07/24 09:55:30;;;;;;;5.70;2.97;;;;;;;31.40;34.55;99315.75;4889015;29;20033;-95
2023/07/24 09:58:01;;;;;;;5.53;2.67;;;;;;;31.66;34.96;99310.75;4948454;28;20081;-96
2023/07/24 10:00:30;;;;;;;5.25;3.15;;;;;;;31.94;34.96;99320.81;4967749;28;20034;-96
2023/07/24 10:02:55;;;;;;;4.30;2.80;;;;;;;32.10;33.85;99301.53;4967304;28;20027;-95
2023/07/24 10:05:38;;;;;;;4.15;3.08;;;;;;;32.16;33.08;99291.50;4953652;28;20518;-96
2023/07/24 10:08:15;;;;;;;5.38;2.90;;;;;;;32.41;32.87;99285.59;4977900;28;20034;-96
2023/07/24 10:10:44;;;;;;;9.80;2.80;;;;;;;32.33;31.64;99302.84;4958959;28;20027;-94
2023/07/24 10:13:26;;;;;;;3.85;2.75;;;;;;;32.28;31.46;99278.25;4959734;28;20043;-94
2023/07/24 10:16:07;;;;;;;;;;;;;;;;;;;;;
2023/07/24 10:18:36;;;;;;;;;;;;;;;32.84;30.78;99289.03;4973445;28;20147;-87
2023/07/24 10:21:16;;;;;;;3.40;2.63;;;;;;;32.76;31.40;99291.91;4988164;28;19913;-87
2023/07/24 10:23:51;;;;;;;3.55;2.95;;;;;;;32.78;32.28;99275.53;5006805;28;20192;-96
2023/07/24 10:26:26;;;;;;;4.60;3.50;;;;;;;32.82;32.61;99269.91;4995690;28;20038;-86
2023/07/24 10:28:52;;;;;;;4.43;3.22;;;;;;;32.86;31.23;99281.03;5007942;28;20038;-87
2023/07/24 10:34:03;;;;;;;11.38;9.40;;;;;;;33.19;30.27;99248.63;5066785;23;20033;-95
2023/07/24 10:39:59;;;;;;;4.50;2.50;;;;;;;33.36;28.60;99253.09;5050019;23;20076;-96
2023/07/24 10:42:33;;;;;;;3.97;2.78;;;;;;;33.29;27.28;99258.00;4963275;28;20060;-87
2023/07/24 10:45:29;;;;;;;4.55;2.65;;;;;;;33.41;28.29;99276.91;4925069;29;20410;-89
2023/07/24 10:48:06;;;;;;;4.35;3.15;;;;;;;33.51;28.57;99261.19;4936386;29;20060;-88
2023/07/24 10:50:47;;;;;;;10.02;3.70;;;;;;;33.58;29.11;99242.31;4933627;29;20032;-89
2023/07/24 10:53:30;;;;;;;4.60;3.40;;;;;;;33.48;27.90;99240.50;4945985;29;20036;-89
2023/07/24 10:55:55;;;;;;;5.25;3.22;;;;;;;33.66;25.85;99256.16;4904112;29;20115;-87
2023/07/24 10:58:35;;;;;;;7.07;3.53;;;;;;;33.51;26.80;99234.06;4906640;29;20061;-86
2023/07/24 11:01:04;;;;;;;4.35;3.20;;;;;;;33.45;26.39;99248.94;4951548;29;20123;-85
2023/07/24 11:03:30;;;;;;;4.97;3.75;;;;;;;33.31;25.49;99231.25;4942814;29;20083;-84
2023/07/24 11:05:57;;;;;;;6.13;3.22;;;;;;;33.09;26.14;99214.09;4951098;29;20166;-95
2023/07/24 11:08:27;;;;;;;4.32;3.42;;;;;;;33.42;25.76;99231.84;4942770;28;20489;-96
2023/07/24 11:11:12;;;;;;;5.72;4.25;;;;;;;33.53;25.78;99244.81;4946883;29;20046;-96
2023/07/24 11:13:47;;;;;;;5.88;4.82;;;;;;;33.46;25.73;99212.22;4990386;28;20034;-88
2023/07/24 11:16:12;;;;;;;3.80;2.90;;;;;;;33.58;25.58;99216.41;4977902;28;20039;-90
2023/07/24 11:18:48;;;;;;;4.97;2.80;;;;;;;33.69;24.07;99227.38;4973670;28;20082;-87
2023/07/24 11:21:15;;;;;;;4.38;3.33;;;;;;;33.42;24.04;99206.72;5000364;28;20022;-87
2023/07/24 11:23:56;;;;;;;9.27;7.32;;;;;;;33.51;24.50;99217.31;4972874;28;20070;-86
2023/07/24 11:26:23;;;;;;;24.15;21.00;;;;;;;33.47;24.45;99215.81;4970489;28;20037;-87
2023/07/24 11:29:13;;;;;;;7.25;3.83;;;;;;;33.25;23.70;99207.84;4961814;28;20022;-96
2023/07/24 11:31:42;;;;;;;6.53;3.88;;;;;;;33.21;24.33;99219.06;4999081;28;20089;-95
2023/07/24 11:34:10;;;;;;;5.75;3.55;;;;;;;33.24;24.57;99197.88;4998061;28;20144;-96
2023/07/24 11:40:12;;;;;;;4.93;3.40;;;;;;;33.39;24.96;99190.84;5294126;23;20073;-96
2023/07/24 11:42:44;;;;;;;4.15;3.10;;;;;;;33.61;24.19;99205.16;4994283;28;20034;-96
2023/07/24 11:50:55;;;;;;;6.00;3.38;;;;;;;33.72;24.15;99176.25;5071073;23;20064;-96
2023/07/24 11:53:30;;;;;;;7.40;5.57;;;;;;;33.65;23.26;99195.94;4994040;28;20133;-92
2023/07/24 11:56:17;;;;;;;4.97;3.53;;;;;;;33.70;23.73;99193.41;4954630;28;20038;-92
2023/07/24 12:06:23;;;;;;;4.85;3.40;;;;;;;33.78;23.08;99186.47;5001393;28;20041;-95
2023/07/24 12:09:36;;;;;;;;;;;;;;;;;;;;;
2023/07/24 12:12:38;;;;;;;4.88;3.58;;;;;;;33.72;24.89;99163.06;4907644;29;20124;-94
2023/07/24 12:15:04;;;;;;;5.28;3.38;;;;;;;33.69;24.16;99175.09;4942004;28;20041;-93
2023/07/24 12:17:30;;;;;;;4.38;3.40;;;;;;;33.65;23.63;99160.44;4972874;28;20022;-94
2023/07/24 12:19:57;;;;;;;8.32;4.40;;;;;;;33.82;23.23;99164.84;4968899;28;20051;-92
2023/07/24 12:23:31;;;;;;;;;;;;;;;;;;;;;
2023/07/24 12:25:57;;;;;;;9.32;4.40;;;;;;;34.11;23.91;99155.81;4982152;28;20121;-91
2023/07/24 12:28:22;;;;;;;4.97;3.78;;;;;;;34.17;23.01;99158.94;4986451;28;20053;-95
2023/07/24 12:30:58;;;;;;;8.77;4.22;;;;;;;34.35;23.13;99175.28;4972909;28;20034;-96
2023/07/24 12:33:24;;;;;;;8.15;5.30;;;;;;;34.04;23.64;99155.22;4978622;28;20037;-94
2023/07/24 12:35:57;;;;;;;6.45;3.95;;;;;;;34.19;23.69;99153.69;4977352;28;20443;-96
2023/07/24 12:38:25;;;;;;;7.88;5.32;;;;;;;34.25;24.24;99145.56;4958049;28;20049;-94
2023/07/24 12:40:52;;;;;;;9.52;5.18;;;;;;;34.46;23.94;99161.81;4972560;28;20034;-94
2023/07/24 12:43:18;;;;;;;7.78;4.00;;;;;;;34.42;24.32;99144.34;4988823;28;20047;-95
2023/07/24 12:45:46;;;;;;;5.65;3.80;;;;;;;34.47;23.99;99143.84;4970512;28;20504;-87
2023/07/24 12:48:12;;;;;;;5.65;3.80;;;;;;;34.64;23.61;99161.44;4979975;28;20054;-86
2023/07/24 12:50:52;;;;;;;6.85;5.15;;;;;;;34.76;24.21;99143.13;4985296;28;20039;-94
2023/07/24 12:53:21;;;;;;;9.07;5.05;;;;;;;34.92;23.11;99147.91;4980544;28;20054;-92
2023/07/24 12:55:46;;;;;;;8.73;5.70;;;;;;;34.61;23.09;99120.31;4974280;28;20053;-96
2023/07/24 12:58:12;;;;;;;6.50;3.95;;;;;;;34.61;22.69;99126.69;4953077;28;20023;-94
2023/07/24 13:04:11;;;;;;;6.22;4.53;;;;;;;34.80;24.47;99113.84;4982384;28;20094;-93
2023/07/24 13:06:46;;;;;;;7.55;4.80;;;;;;;34.92;24.57;99111.53;4980385;28;20047;-92
2023/07/24 13:09:13;;;;;;;7.88;4.75;;;;;;;35.08;23.92;99119.91;4950347;28;20037;-92
2023/07/24 13:11:39;;;;;;;8.38;5.15;;;;;;;35.22;23.51;99132.75;4964871;28;20099;-91
2023/07/24 13:14:40;;;;;;;9.13;4.93;;;;;;;35.45;23.31;99123.28;4966114;28;20167;-92
2023/07/24 13:17:07;;;;;;;;;;;;;;;35.53;23.15;99121.84;4968886;28;20030;-95
2023/07/24 13:19:38;;;;;;;4.85;3.92;;;;;;;35.41;22.22;99097.41;5004040;28;19898;-96
2023/07/24 13:22:48;;;;;;;10.23;4.90;;;;;;;35.35;23.82;99099.19;4981294;28;20030;-96
2023/07/24 13:25:14;;;;;;;8.23;5.40;;;;;;;35.57;23.20;99099.31;4968929;28;20034;-96
2023/07/24 13:27:44;;;;;;;7.20;4.00;;;;;;;35.65;21.76;99094.31;5123035;23;20061;-86
2023/07/24 13:30:13;;;;;;;10.05;4.55;;;;;;;35.67;22.22;99108.66;4950015;28;20030;-87
2023/07/24 13:32:38;;;;;;;5.70;4.32;;;;;;;36.00;21.91;99106.44;4950492;28;20405;-86
2023/07/24 13:35:04;;;;;;;8.45;4.53;;;;;;;36.13;21.38;99087.63;4948847;28;20023;-87
2023/07/24 13:37:29;;;;;;;6.35;4.20;;;;;;;35.93;22.20;99090.66;4949744;28;20573;-87
2023/07/24 13:39:58;;;;;;;8.13;4.50;;;;;;;36.10;21.85;99085.69;4943137;28;20034;-87
2023/07/24 13:42:23;;;;;;;6.88;4.20;;;;;;;36.33;21.72;99097.81;4946745;28;20030;-88
2023/07/24 13:44:52;;;;;;;5.90;3.92;;;;;;;36.11;20.86;99092.09;4944489;28;20022;-89
2023/07/24 13:47:21;;;;;;;7.18;3.90;;;;;;;36.13;21.12;99082.00;4929577;28;20030;-91
2023/07/24 13:49:46;;;;;;;7.55;4.95;;;;;;;36.30;22.14;99087.50;4927826;28;20066;-91
2023/07/24 13:52:21;;;;;;;7.22;4.70;;;;;;;36.58;22.11;99100.53;4934861;28;20030;-91
2023/07/24 13:54:55;;;;;;;7.60;5.07;;;;;;;36.86;21.30;99077.59;4934541;29;20508;-92
2023/07/24 13:57:21;;;;;;;5.80;4.68;;;;;;;37.24;21.26;99071.81;4952572;28;20027;-88
2023/07/24 13:59:47;;;;;;;6.13;3.72;;;;;;;37.36;20.79;99072.97;4944400;28;20122;-86
2023/07/24 14:02:31;;;;;;;6.18;4.20;;;;;;;37.43;21.08;99078.31;4948167;28;20054;-87
2023/07/24 14:05:02;;;;;;;5.50;3.83;;;;;;;37.48;21.02;99066.50;4930022;28;20117;-89
2023/07/24 14:07:28;;;;;;;6.70;4.50;;;;;;;37.79;19.78;99055.28;4927873;28;20027;-86
2023/07/24 14:09:53;;;;;;;7.25;4.05;;;;;;;37.99;20.17;99059.69;4933639;28;20441;-86
2023/07/24 14:12:22;;;;;;;7.75;4.10;;;;;;;38.28;19.56;99059.31;4927536;28;20038;-87
2023/07/24 14:14:47;;;;;;;9.25;5.50;;;;;;;38.32;20.02;99048.69;4939709;28;20022;-91
2023/07/24 14:17:14;;;;;;;9.80;4.60;;;;;;;38.68;19.11;99058.44;4941903;28;20058;-89
2023/07/24 14:19:40;;;;;;;5.15;4.22;;;;;;;38.99;18.71;99057.50;4927761;28;20051;-88
2023/07/24 14:22:06;;;;;;;5.60;3.85;;;;;;;39.22;17.89;99050.41;4941679;28;20386;-89
2023/07/24 14:24:31;;;;;;;6.55;4.57;;;;;;;39.29;18.14;99046.50;4932283;28;20027;-88
2023/07/24 14:26:57;;;;;;;6.15;3.83;;;;;;;39.39;17.87;99043.19;4942217;28;20129;-87
2023/07/24 14:29:50;;;;;;;6.53;4.28;;;;;;;39.07;18.33;99030.59;4945436;28;20058;-89
2023/07/24 14:32:23;;;;;;;8.10;3.80;;;;;;;39.26;18.21;99030.53;4934266;28;20043;-89
2023/07/24 14:34:54;;;;;;;8.30;4.28;;;;;;;39.89;18.38;99027.97;4941205;28;20030;-87
2023/07/24 14:38:10;;;;;;;5.63;4.03;;;;;;;39.78;18.49;99046.19;4944178;28;20113;-88
2023/07/24 14:40:37;;;;;;;5.85;4.18;;;;;;;39.70;18.25;99038.53;4936271;28;20064;-88
2023/07/24 14:43:08;;;;;;;7.68;4.40;;;;;;;40.34;18.01;99034.63;4929131;28;20027;-87
2023/07/24 14:45:36;;;;;;;6.22;3.85;;;;;;;40.30;18.18;99029.16;4945886;28;20073;-86
2023/07/24 15:24:01;;;;;;;5.38;3.65;;;;;;;41.40;17.74;99006.81;4797869;30;20040;-94
2023/07/24 15:26:38;;;;;;;7.28;5.30;;;;;;;41.67;17.60;98983.09;4768687;30;20096;-93
2023/07/24 15:29:16;;;;;;;;;;;;;;;;;;;;;
2023/07/24 15:31:45;;;;;;;5.80;4.25;;;;;;;41.98;17.48;98999.47;4767297;30;20134;-94
2023/07/24 15:35:05;;;;;;;6.70;4.38;;;;;;;42.00;17.39;98998.97;4765572;30;20047;-94
2023/07/24 15:51:08;;;;;;;6.63;4.53;;;;;;;39.72;20.43;98980.47;4872519;28;20114;-87
2023/07/24 16:01:14;;;;;;;5.65;4.10;;;;;;;39.74;20.60;98994.84;4786551;30;20078;-87
2023/07/24 16:04:40;;;;;;;;;;;;;;;;;;;;;
2023/07/24 16:08:11;;;;;;;7.50;5.13;;;;;;;38.36;22.42;98976.19;4773903;30;20044;-86
2023/07/24 16:11:12;;;;;;;;;;;;;;;;;;;;;
2023/07/24 16:21:37;;;;;;;;;;;;;;;;;;;;;
2023/07/24 16:24:46;;;;;;;;;;;;;;;;;;;;;
2023/07/24 16:31:09;;;;;;;14.32;5.80;;;;;;;33.66;30.19;98958.16;4662869;30;20086;-88
2023/07/24 16:34:10;;;;;;;8.90;4.93;;;;;;;33.42;30.84;98969.44;4675716;30;20049;-86
2023/07/24 16:37:42;;;;;;;;;;;;;;;;;;;;;
2023/07/24 16:40:10;;;;;;;10.10;6.90;;;;;;;33.04;31.89;98974.66;4658411;30;20046;-86
2023/07/24 16:42:39;;;;;;;8.32;5.80;;;;;;;32.96;32.76;98979.59;4639005;30;20474;-87
2023/07/24 16:45:04;;;;;;;10.23;5.95;;;;;;;32.73;34.18;98976.91;4717937;29;20054;-85
2023/07/24 16:47:30;;;;;;;11.43;6.13;;;;;;;32.67;33.58;98967.47;4846279;29;20032;-86
2023/07/24 16:49:55;;;;;;;10.60;4.97;;;;;;;32.59;33.26;98972.38;4846708;29;20033;-86
2023/07/24 16:52:21;;;;;;;14.98;5.70;;;;;;;32.52;33.93;98972.47;4846457;29;20424;-86
2023/07/24 16:54:48;;;;;;;11.48;5.80;;;;;;;32.41;34.66;98964.31;4874480;29;20048;-86
2023/07/24 16:57:13;;;;;;;6.32;5.00;;;;;;;32.17;34.53;98969.16;4856613;29;20152;-86
2023/07/24 16:59:41;;;;;;;10.20;5.30;;;;;;;32.10;35.00;98964.47;4869643;29;20059;-86
2023/07/24 17:02:06;;;;;;;8.27;4.80;;;;;;;32.07;34.83;98961.75;4908231;29;20031;-86
2023/07/24 17:04:32;;;;;;;10.02;5.43;;;;;;;31.87;35.60;98958.88;4906255;29;20501;-86
2023/07/24 17:06:57;;;;;;;9.15;5.10;;;;;;;31.78;35.01;98971.34;4910499;29;20031;-86
2023/07/24 17:09:23;;;;;;;6.55;4.45;;;;;;;31.69;35.34;98964.72;4926751;29;20027;-87
2023/07/24 17:11:48;;;;;;;7.70;5.35;;;;;;;31.53;36.03;98960.59;4952462;28;20047;-89
2023/07/24 17:14:14;;;;;;;10.02;5.60;;;;;;;31.39;36.32;98956.00;4939050;29;20072;-87
2023/07/24 17:16:39;;;;;;;8.27;5.45;;;;;;;31.24;36.92;98954.63;4957072;28;20041;-86
2023/07/24 17:19:05;;;;;;;11.35;5.93;;;;;;;31.16;36.59;98955.94;4928374;28;20551;-86
2023/07/24 17:21:30;;;;;;;9.27;5.30;;;;;;;31.15;36.41;98974.63;4944313;28;20031;-86
2023/07/24 17:23:56;;;;;;;10.45;4.90;;;;;;;30.94;37.35;98958.22;4941759;29;20030;-86
2023/07/24 17:26:22;;;;;;;9.27;5.07;;;;;;;30.85;36.95;98958.69;4926136;29;20027;-87
2023/07/24 17:28:48;;;;;;;8.13;5.60;;;;;;;30.81;38.29;98953.16;4941199;29;20046;-85
2023/07/24 17:31:14;;;;;;;9.07;5.18;;;;;;;30.80;38.82;98965.50;4940432;29;20053;-87
2023/07/24 17:33:40;;;;;;;9.65;5.78;;;;;;;30.68;38.37;98959.72;4940928;29;20027;-86
2023/07/24 17:36:05;;;;;;;7.80;4.75;;;;;;;30.55;39.25;98953.91;4927706;28;20098;-87
2023/07/24 17:38:31;;;;;;;9.05;5.00;;;;;;;30.46;39.50;98962.69;4928310;28;20023;-87
2023/07/24 17:41:03;;;;;;;8.65;5.00;;;;;;;30.37;39.68;98960.41;4922495;29;20042;-87
2023/07/24 17:43:40;;;;;;;9.43;5.18;;;;;;;30.28;40.22;98950.97;4910174;29;20090;-94
2023/07/24 17:46:06;;;;;;;11.55;6.15;;;;;;;30.18;40.25;98949.88;4918324;29;20051;-93
2023/07/24 17:48:31;;;;;;;21.52;6.40;;;;;;;30.11;40.57;98952.72;4932461;29;20026;-96
2023/07/24 17:50:57;;;;;;;7.05;4.70;;;;;;;29.96;40.99;98952.06;4917502;29;20131;-96
2023/07/24 17:53:23;;;;;;;9.82;5.30;;;;;;;30.01;40.84;98962.75;4915733;29;20034;-96
2023/07/24 17:55:48;;;;;;;13.88;4.80;;;;;;;29.93;41.11;98964.00;4916220;29;20035;-95
2023/07/24 17:58:17;;;;;;;8.40;4.93;;;;;;;29.84;41.19;98963.66;4913808;29;20137;-94
2023/07/24 18:00:45;;;;;;;8.77;4.80;;;;;;;29.87;41.17;98974.75;4912861;29;20489;-96
2023/07/24 18:03:12;;;;;;;11.23;5.60;;;;;;;29.80;41.45;98966.44;4912877;29;20035;-96
2023/07/24 18:05:38;;;;;;;12.10;5.60;;;;;;;29.75;41.42;98967.69;4917383;28;20042;-87
2023/07/24 18:08:04;;;;;;;8.90;5.25;;;;;;;29.69;41.60;98977.63;4927653;28;20030;-87
2023/07/24 18:10:30;;;;;;;7.15;4.85;;;;;;;29.59;42.16;98981.25;4925297;28;20097;-87
2023/07/24 18:12:55;;;;;;;7.45;5.18;;;;;;;29.62;42.06;98989.56;4942751;28;20084;-88
2023/07/24 18:15:21;;;;;;;11.15;5.60;;;;;;;29.52;42.45;98989.63;4927560;28;20030;-87
2023/07/24 18:17:46;;;;;;;11.00;5.95;;;;;;;29.41;42.80;98987.72;4927887;28;20027;-87
2023/07/24 18:20:15;;;;;;;9.30;5.30;;;;;;;29.37;42.75;99000.81;4959233;28;20026;-86